sensor_id;sensor_type;location;lat;lon;timestamp;pressure;altitude;pressure_sealevel;temperature;humidity
46942;BME280;32676;52.630;4.896;2023-12-28T00:01:00;101220.28;;;9.64;86.72
46942;BME280;32676;52.630;4.896;2023-12-28T00:03:26;101215.94;;;9.63;86.86
46942;BME280;32676;52.630;4.896;2023-12-28T00:05:53;101222.94;;;9.62;86.96
46942;BME280;32676;52.630;4.896;2023-12-28T00:08:19;101201.25;;;9.54;87.17
46942;BME280;32676;52.630;4.896;2023-12-28T00:10:46;101207.25;;;9.60;87.16
46942;BME280;32676;52.630;4.896;2023-12-28T00:13:12;101200.25;;;9.59;87.26
46942;BME280;32676;52.630;4.896;2023-12-28T00:15:39;101196.00;;;9.54;87.03
46942;BME280;32676;52.630;4.896;2023-12-28T00:18:07;101203.84;;;9.55;87.36
46942;BME280;32676;52.630;4.896;2023-12-28T00:20:35;101214.19;;;9.61;87.26
46942;BME280;32676;52.630;4.896;2023-12-28T00:23:02;101216.81;;;9.61;87.69
46942;BME280;32676;52.630;4.896;2023-12-28T00:25:30;101137.34;;;9.19;87.66
46942;BME280;32676;52.630;4.896;2023-12-28T00:27:57;101200.25;;;9.59;88.12
46942;BME280;32676;52.630;4.896;2023-12-28T00:30:23;101203.75;;;9.58;88.21
46942;BME280;32676;52.630;4.896;2023-12-28T00:32:50;101198.53;;;9.58;88.40
46942;BME280;32676;52.630;4.896;2023-12-28T00:35:18;101176.94;;;9.46;88.23
46942;BME280;32676;52.630;4.896;2023-12-28T00:37:44;101196.81;;;9.57;88.31
46942;BME280;32676;52.630;4.896;2023-12-28T00:40:11;101201.13;;;9.58;88.25
46942;BME280;32676;52.630;4.896;2023-12-28T00:42:37;101202.88;;;9.59;87.92
46942;BME280;32676;52.630;4.896;2023-12-28T00:45:06;101198.53;;;9.58;88.25
46942;BME280;32676;52.630;4.896;2023-12-28T00:47:33;101198.53;;;9.58;88.18
46942;BME280;32676;52.630;4.896;2023-12-28T00:49:59;101196.88;;;9.54;88.17
46942;BME280;32676;52.630;4.896;2023-12-28T00:52:27;101209.88;;;9.60;88.10
46942;BME280;32676;52.630;4.896;2023-12-28T00:54:54;101208.94;;;9.61;88.06
46942;BME280;32676;52.630;4.896;2023-12-28T00:57:20;101195.16;;;9.53;88.20
46942;BME280;32676;52.630;4.896;2023-12-28T00:59:47;101210.69;;;9.63;87.89
46942;BME280;32676;52.630;4.896;2023-12-28T01:02:13;101208.94;;;9.61;88.03
46942;BME280;32676;52.630;4.896;2023-12-28T01:04:40;101216.78;;;9.63;87.92
46942;BME280;32676;52.630;4.896;2023-12-28T01:07:06;101186.63;;;9.42;87.99
46942;BME280;32676;52.630;4.896;2023-12-28T01:09:34;101228.09;;;9.67;87.83
46942;BME280;32676;52.630;4.896;2023-12-28T01:12:01;101197.91;;;9.47;87.65
46942;BME280;32676;52.630;4.896;2023-12-28T01:14:27;101238.59;;;9.67;87.86
46942;BME280;32676;52.630;4.896;2023-12-28T01:16:54;101226.34;;;9.66;87.72
46942;BME280;32676;52.630;4.896;2023-12-28T01:19:20;101235.03;;;9.68;87.54
46942;BME280;32676;52.630;4.896;2023-12-28T01:21:48;101232.41;;;9.68;87.28
46942;BME280;32676;52.630;4.896;2023-12-28T01:24:15;101206.56;;;9.51;87.25
46942;BME280;32676;52.630;4.896;2023-12-28T01:26:43;101233.34;;;9.67;87.53
46942;BME280;32676;52.630;4.896;2023-12-28T01:29:10;101229.78;;;9.68;87.27
46942;BME280;32676;52.630;4.896;2023-12-28T01:31:36;101233.34;;;9.67;87.26
46942;BME280;32676;52.630;4.896;2023-12-28T01:34:04;101141.84;;;9.12;86.81
46942;BME280;32676;52.630;4.896;2023-12-28T01:36:30;101229.91;;;9.63;87.23
46942;BME280;32676;52.630;4.896;2023-12-28T01:38:57;101238.59;;;9.67;87.06
46942;BME280;32676;52.630;4.896;2023-12-28T01:41:23;101262.03;;;9.74;86.72
46942;BME280;32676;52.630;4.896;2023-12-28T01:43:51;101268.13;;;9.75;86.65
46942;BME280;32676;52.630;4.896;2023-12-28T01:46:19;101287.34;;;9.77;86.37
46942;BME280;32676;52.630;4.896;2023-12-28T01:48:50;101315.13;;;9.87;86.16
46942;BME280;32676;52.630;4.896;2023-12-28T01:51:17;101296.25;;;9.70;85.98
46942;BME280;32676;52.630;4.896;2023-12-28T01:53:44;101339.50;;;9.92;85.78
46942;BME280;32676;52.630;4.896;2023-12-28T01:56:12;101350.81;;;9.96;85.25
46942;BME280;32676;52.630;4.896;2023-12-28T01:58:43;101359.56;;;9.95;85.13
46942;BME280;32676;52.630;4.896;2023-12-28T02:01:11;101382.16;;;10.04;84.81
46942;BME280;32676;52.630;4.896;2023-12-28T02:03:38;101379.50;;;10.04;84.74
46942;BME280;32676;52.630;4.896;2023-12-28T02:06:06;101384.78;;;10.04;84.34
46942;BME280;32676;52.630;4.896;2023-12-28T02:08:33;101370.00;;;9.99;84.12
46942;BME280;32676;52.630;4.896;2023-12-28T02:10:59;101360.50;;;9.92;84.05
46942;BME280;32676;52.630;4.896;2023-12-28T02:13:26;101369.09;;;10.01;83.80
46942;BME280;32676;52.630;4.896;2023-12-28T02:15:56;101357.84;;;9.94;83.71
46942;BME280;32676;52.630;4.896;2023-12-28T02:18:31;101347.31;;;9.97;83.35
46942;BME280;32676;52.630;4.896;2023-12-28T02:20:59;101348.16;;;9.97;83.35
46942;BME280;32676;52.630;4.896;2023-12-28T02:23:27;101329.94;;;9.90;83.16
46942;BME280;32676;52.630;4.896;2023-12-28T02:25:55;101340.34;;;9.94;83.21
46942;BME280;32676;52.630;4.896;2023-12-28T02:28:22;101338.63;;;9.93;82.79
46942;BME280;32676;52.630;4.896;2023-12-28T02:30:48;101337.72;;;9.94;82.24
46942;BME280;32676;52.630;4.896;2023-12-28T02:33:19;101332.47;;;9.94;82.45
46942;BME280;32676;52.630;4.896;2023-12-28T02:35:52;101327.25;;;9.91;82.26
46942;BME280;32676;52.630;4.896;2023-12-28T02:38:23;101329.00;;;9.92;82.36
46942;BME280;32676;52.630;4.896;2023-12-28T02:40:51;101315.06;;;9.90;81.91
46942;BME280;32676;52.630;4.896;2023-12-28T02:43:19;101317.69;;;9.90;82.34
46942;BME280;32676;52.630;4.896;2023-12-28T02:45:46;101299.50;;;9.81;82.16
46942;BME280;32676;52.630;4.896;2023-12-28T02:48:12;101325.50;;;9.93;82.35
46942;BME280;32676;52.630;4.896;2023-12-28T02:50:39;101337.72;;;9.94;82.11
46942;BME280;32676;52.630;4.896;2023-12-28T02:53:05;101331.59;;;9.94;81.99
46942;BME280;32676;52.630;4.896;2023-12-28T02:55:33;101316.84;;;9.88;82.21
46942;BME280;32676;52.630;4.896;2023-12-28T02:58:00;101322.00;;;9.91;82.15
46942;BME280;32676;52.630;4.896;2023-12-28T03:00:28;101304.69;;;9.84;82.11
46942;BME280;32676;52.630;4.896;2023-12-28T03:02:55;101306.34;;;9.88;81.99
46942;BME280;32676;52.630;4.896;2023-12-28T03:05:21;101302.81;;;9.89;81.62
46942;BME280;32676;52.630;4.896;2023-12-28T03:07:48;101310.69;;;9.89;81.94
46942;BME280;32676;52.630;4.896;2023-12-28T03:10:15;101297.72;;;9.83;81.58
46942;BME280;32676;52.630;4.896;2023-12-28T03:12:41;101292.47;;;9.83;81.36
46942;BME280;32676;52.630;4.896;2023-12-28T03:15:08;101311.59;;;9.88;81.25
46942;BME280;32676;52.630;4.896;2023-12-28T03:17:36;101294.13;;;9.87;81.35
46942;BME280;32676;52.630;4.896;2023-12-28T03:20:03;101264.81;;;9.67;81.48
46942;BME280;32676;52.630;4.896;2023-12-28T03:22:30;101270.81;;;9.73;81.13
46942;BME280;32676;52.630;4.896;2023-12-28T03:24:56;101276.84;;;9.77;81.23
46942;BME280;32676;52.630;4.896;2023-12-28T03:27:23;101273.38;;;9.75;80.98
46942;BME280;32676;52.630;4.896;2023-12-28T03:29:49;101292.41;;;9.86;81.06
46942;BME280;32676;52.630;4.896;2023-12-28T03:32:16;101281.91;;;9.86;81.10
46942;BME280;32676;52.630;4.896;2023-12-28T03:34:44;101277.53;;;9.85;81.23
46942;BME280;32676;52.630;4.896;2023-12-28T03:37:10;101249.03;;;9.70;81.24
46942;BME280;32676;52.630;4.896;2023-12-28T03:39:37;101267.19;;;9.79;81.12
46942;BME280;32676;52.630;4.896;2023-12-28T03:42:04;101265.31;;;9.84;81.14
46942;BME280;32676;52.630;4.896;2023-12-28T03:44:30;101222.19;;;9.57;81.11
46942;BME280;32676;52.630;4.896;2023-12-28T03:46:57;101266.22;;;9.83;81.26
46942;BME280;32676;52.630;4.896;2023-12-28T03:49:25;101266.22;;;9.83;81.31
46942;BME280;32676;52.630;4.896;2023-12-28T03:51:53;101271.47;;;9.83;81.13
46942;BME280;32676;52.630;4.896;2023-12-28T03:54:19;101273.22;;;9.84;81.29
46942;BME280;32676;52.630;4.896;2023-12-28T03:56:46;101269.66;;;9.85;81.05
46942;BME280;32676;52.630;4.896;2023-12-28T03:59:13;101265.31;;;9.84;81.11
46942;BME280;32676;52.630;4.896;2023-12-28T04:01:41;101263.59;;;9.83;80.99
46942;BME280;32676;52.630;4.896;2023-12-28T04:04:07;101264.47;;;9.82;81.41
46942;BME280;32676;52.630;4.896;2023-12-28T04:06:35;101264.47;;;9.82;81.21
46942;BME280;32676;52.630;4.896;2023-12-28T04:09:03;101261.84;;;9.82;81.32
46942;BME280;32676;52.630;4.896;2023-12-28T04:11:29;101263.59;;;9.83;81.20
46942;BME280;32676;52.630;4.896;2023-12-28T04:13:56;101263.59;;;9.83;81.15
46942;BME280;32676;52.630;4.896;2023-12-28T04:16:22;101266.22;;;9.83;81.05
46942;BME280;32676;52.630;4.896;2023-12-28T04:18:49;101253.28;;;9.75;81.14
46942;BME280;32676;52.630;4.896;2023-12-28T04:21:14;101257.50;;;9.81;80.97
46942;BME280;32676;52.630;4.896;2023-12-28T04:23:41;101252.25;;;9.81;81.06
46942;BME280;32676;52.630;4.896;2023-12-28T04:26:09;101255.75;;;9.82;80.90
46942;BME280;32676;52.630;4.896;2023-12-28T04:28:35;101245.38;;;9.77;81.13
46942;BME280;32676;52.630;4.896;2023-12-28T04:31:03;101236.78;;;9.69;80.74
46942;BME280;32676;52.630;4.896;2023-12-28T04:33:30;101269.72;;;9.82;81.08
46942;BME280;32676;52.630;4.896;2023-12-28T04:35:57;101284.44;;;9.89;80.94
46942;BME280;32676;52.630;4.896;2023-12-28T04:38:26;101278.50;;;9.81;80.91
46942;BME280;32676;52.630;4.896;2023-12-28T04:40:53;101304.50;;;9.93;80.80
46942;BME280;32676;52.630;4.896;2023-12-28T04:43:24;101311.47;;;9.94;81.06
46942;BME280;32676;52.630;4.896;2023-12-28T04:45:50;101320.16;;;9.96;80.65
46942;BME280;32676;52.630;4.896;2023-12-28T04:48:17;101329.75;;;9.99;80.75
46942;BME280;32676;52.630;4.896;2023-12-28T04:50:46;101325.34;;;9.99;80.59
46942;BME280;32676;52.630;4.896;2023-12-28T04:53:13;101312.31;;;9.95;80.54
46942;BME280;32676;52.630;4.896;2023-12-28T04:55:39;101307.16;;;9.92;80.36
46942;BME280;32676;52.630;4.896;2023-12-28T04:58:06;101317.50;;;9.98;80.55
46942;BME280;32676;52.630;4.896;2023-12-28T05:00:34;101316.66;;;9.97;80.62
46942;BME280;32676;52.630;4.896;2023-12-28T05:03:00;101308.84;;;9.94;80.37
46942;BME280;32676;52.630;4.896;2023-12-28T05:05:27;101303.59;;;9.94;80.55
46942;BME280;32676;52.630;4.896;2023-12-28T05:07:53;101277.53;;;9.85;80.41
46942;BME280;32676;52.630;4.896;2023-12-28T05:10:20;101287.88;;;9.91;80.35
46942;BME280;32676;52.630;4.896;2023-12-28T05:12:46;101287.00;;;9.92;80.71
46942;BME280;32676;52.630;4.896;2023-12-28T05:15:13;101282.69;;;9.90;80.70
46942;BME280;32676;52.630;4.896;2023-12-28T05:17:42;101271.38;;;9.88;80.79
46942;BME280;32676;52.630;4.896;2023-12-28T05:20:09;101273.13;;;9.87;80.51
46942;BME280;32676;52.630;4.896;2023-12-28T05:22:36;101272.22;;;9.88;80.86
46942;BME280;32676;52.630;4.896;2023-12-28T05:25:03;101270.50;;;9.87;80.87
46942;BME280;32676;52.630;4.896;2023-12-28T05:27:31;101297.44;;;9.95;80.87
46942;BME280;32676;52.630;4.896;2023-12-28T05:29:57;101312.25;;;9.98;80.62
46942;BME280;32676;52.630;4.896;2023-12-28T05:32:24;101321.84;;;10.01;80.55
46942;BME280;32676;52.630;4.896;2023-12-28T05:34:52;101309.81;;;9.90;80.66
46942;BME280;32676;52.630;4.896;2023-12-28T05:37:18;101322.66;;;10.03;80.50
46942;BME280;32676;52.630;4.896;2023-12-28T05:39:45;101331.41;;;10.03;80.53
46942;BME280;32676;52.630;4.896;2023-12-28T05:42:11;101308.06;;;9.89;80.53
46942;BME280;32676;52.630;4.896;2023-12-28T05:44:38;101337.50;;;10.04;80.56
46942;BME280;32676;52.630;4.896;2023-12-28T05:47:04;101340.97;;;10.06;80.37
46942;BME280;32676;52.630;4.896;2023-12-28T05:49:31;101332.34;;;10.01;80.21
46942;BME280;32676;52.630;4.896;2023-12-28T05:51:59;101348.78;;;10.09;80.49
46942;BME280;32676;52.630;4.896;2023-12-28T05:54:26;101359.25;;;10.10;80.17
46942;BME280;32676;52.630;4.896;2023-12-28T05:56:52;101331.59;;;9.94;80.46
46942;BME280;32676;52.630;4.896;2023-12-28T05:59:19;101361.91;;;10.09;80.40
46942;BME280;32676;52.630;4.896;2023-12-28T06:01:46;101372.25;;;10.15;80.13
46942;BME280;32676;52.630;4.896;2023-12-28T06:04:13;101355.06;;;10.02;80.29
46942;BME280;32676;52.630;4.896;2023-12-28T06:06:40;101379.25;;;10.16;80.29
46942;BME280;32676;52.630;4.896;2023-12-28T06:09:08;101374.00;;;10.16;80.37
46942;BME280;32676;52.630;4.896;2023-12-28T06:11:34;101381.00;;;10.17;80.17
46942;BME280;32676;52.630;4.896;2023-12-28T06:14:01;101375.75;;;10.17;80.21
46942;BME280;32676;52.630;4.896;2023-12-28T06:16:28;101387.97;;;10.18;80.45
46942;BME280;32676;52.630;4.896;2023-12-28T06:18:58;101382.72;;;10.18;80.30
46942;BME280;32676;52.630;4.896;2023-12-28T06:21:24;101380.94;;;10.18;80.16
46942;BME280;32676;52.630;4.896;2023-12-28T06:23:51;101372.34;;;10.12;80.26
46942;BME280;32676;52.630;4.896;2023-12-28T06:26:19;101375.75;;;10.17;80.34
46942;BME280;32676;52.630;4.896;2023-12-28T06:28:45;101385.34;;;10.18;80.66
46942;BME280;32676;52.630;4.896;2023-12-28T06:31:12;101369.63;;;10.16;80.66
46942;BME280;32676;52.630;4.896;2023-12-28T06:33:38;101333.38;;;9.93;80.59
46942;BME280;32676;52.630;4.896;2023-12-28T06:36:05;101368.78;;;10.14;80.61
46942;BME280;32676;52.630;4.896;2023-12-28T06:38:32;101367.00;;;10.15;80.94
46942;BME280;32676;52.630;4.896;2023-12-28T06:40:59;101357.50;;;10.09;80.87
46942;BME280;32676;52.630;4.896;2023-12-28T06:43:26;101371.38;;;10.16;81.26
46942;BME280;32676;52.630;4.896;2023-12-28T06:45:54;101363.50;;;10.16;81.02
46942;BME280;32676;52.630;4.896;2023-12-28T06:48:20;101365.31;;;10.14;81.29
46942;BME280;32676;52.630;4.896;2023-12-28T06:50:46;101360.06;;;10.14;81.07
46942;BME280;32676;52.630;4.896;2023-12-28T06:53:12;101340.97;;;10.06;81.29
46942;BME280;32676;52.630;4.896;2023-12-28T06:55:39;101349.59;;;10.11;81.47
46942;BME280;32676;52.630;4.896;2023-12-28T06:58:06;101338.28;;;10.09;81.77
46942;BME280;32676;52.630;4.896;2023-12-28T07:00:33;101333.94;;;10.08;81.85
46942;BME280;32676;52.630;4.896;2023-12-28T07:03:00;101323.50;;;10.05;81.68
46942;BME280;32676;52.630;4.896;2023-12-28T07:05:28;101297.44;;;9.95;81.93
46942;BME280;32676;52.630;4.896;2023-12-28T07:07:54;101309.53;;;10.03;81.88
46942;BME280;32676;52.630;4.896;2023-12-28T07:10:21;101304.28;;;10.03;82.14
46942;BME280;32676;52.630;4.896;2023-12-28T07:12:47;101298.22;;;10.01;81.86
46942;BME280;32676;52.630;4.896;2023-12-28T07:15:14;101294.69;;;10.00;82.25
46942;BME280;32676;52.630;4.896;2023-12-28T07:17:42;101299.91;;;10.02;82.05
46942;BME280;32676;52.630;4.896;2023-12-28T07:20:09;101308.63;;;10.04;82.31
46942;BME280;32676;52.630;4.896;2023-12-28T07:22:36;101326.94;;;10.07;82.09
46942;BME280;32676;52.630;4.896;2023-12-28T07:25:04;101340.91;;;10.09;82.25
46942;BME280;32676;52.630;4.896;2023-12-28T07:27:31;101339.09;;;10.11;82.02
46942;BME280;32676;52.630;4.896;2023-12-28T07:29:57;101335.72;;;10.06;82.29
46942;BME280;32676;52.630;4.896;2023-12-28T07:32:24;101343.69;;;10.03;82.07
46942;BME280;32676;52.630;4.896;2023-12-28T07:34:54;101365.25;;;10.17;82.14
46942;BME280;32676;52.630;4.896;2023-12-28T07:37:20;101365.25;;;10.17;81.92
46942;BME280;32676;52.630;4.896;2023-12-28T07:39:47;101337.59;;;10.01;81.84
46942;BME280;32676;52.630;4.896;2023-12-28T07:42:13;101375.66;;;10.20;81.90
46942;BME280;32676;52.630;4.896;2023-12-28T07:44:40;101372.16;;;10.21;81.63
46942;BME280;32676;52.630;4.896;2023-12-28T07:47:07;101336.00;;;9.93;81.43
46942;BME280;32676;52.630;4.896;2023-12-28T07:49:33;101373.94;;;10.19;81.45
46942;BME280;32676;52.630;4.896;2023-12-28T07:52:01;101377.41;;;10.21;81.77
46942;BME280;32676;52.630;4.896;2023-12-28T07:54:28;101379.19;;;10.21;81.44
46942;BME280;32676;52.630;4.896;2023-12-28T07:56:55;101377.41;;;10.21;81.48
46942;BME280;32676;52.630;4.896;2023-12-28T07:59:21;101347.13;;;10.05;81.68
46942;BME280;32676;52.630;4.896;2023-12-28T08:01:48;101368.69;;;10.19;81.59
46942;BME280;32676;52.630;4.896;2023-12-28T08:04:17;101366.06;;;10.19;81.73
46942;BME280;32676;52.630;4.896;2023-12-28T08:06:44;101370.41;;;10.20;81.71
46942;BME280;32676;52.630;4.896;2023-12-28T08:09:11;101370.41;;;10.20;81.83
46942;BME280;32676;52.630;4.896;2023-12-28T08:11:38;101367.78;;;10.20;81.90
46942;BME280;32676;52.630;4.896;2023-12-28T08:14:06;101328.84;;;9.98;81.82
46942;BME280;32676;52.630;4.896;2023-12-28T08:16:32;101320.31;;;9.90;81.66
46942;BME280;32676;52.630;4.896;2023-12-28T08:19:00;101350.38;;;10.16;81.67
46942;BME280;32676;52.630;4.896;2023-12-28T08:21:26;101353.00;;;10.16;81.56
46942;BME280;32676;52.630;4.896;2023-12-28T08:23:53;101344.38;;;10.09;81.39
46942;BME280;32676;52.630;4.896;2023-12-28T08:26:21;101335.66;;;10.09;81.62
46942;BME280;32676;52.630;4.896;2023-12-28T08:28:48;101354.75;;;10.17;81.33
46942;BME280;32676;52.630;4.896;2023-12-28T08:31:14;101372.16;;;10.21;81.21
46942;BME280;32676;52.630;4.896;2023-12-28T08:33:41;101393.00;;;10.27;81.33
46942;BME280;32676;52.630;4.896;2023-12-28T08:36:08;101398.41;;;10.21;81.22
46942;BME280;32676;52.630;4.896;2023-12-28T08:38:36;101443.59;;;10.38;80.89
46942;BME280;32676;52.630;4.896;2023-12-28T08:41:04;101394.41;;;10.03;80.81
46942;BME280;32676;52.630;4.896;2023-12-28T08:43:35;101482.81;;;10.48;80.43
46942;BME280;32676;52.630;4.896;2023-12-28T08:46:03;101490.63;;;10.51;80.22
46942;BME280;32676;52.630;4.896;2023-12-28T08:48:33;101449.94;;;10.27;80.38
46942;BME280;32676;52.630;4.896;2023-12-28T08:51:00;101490.75;;;10.45;80.32
46942;BME280;32676;52.630;4.896;2023-12-28T08:53:26;101522.03;;;10.57;79.86
46942;BME280;32676;52.630;4.896;2023-12-28T08:55:53;101529.84;;;10.60;80.02
46942;BME280;32676;52.630;4.896;2023-12-28T08:58:21;101515.19;;;10.50;79.89
46942;BME280;32676;52.630;4.896;2023-12-28T09:00:49;101532.56;;;10.57;79.77
46942;BME280;32676;52.630;4.896;2023-12-28T09:03:16;101542.09;;;10.61;79.91
46942;BME280;32676;52.630;4.896;2023-12-28T09:05:43;101553.38;;;10.66;79.88
46942;BME280;32676;52.630;4.896;2023-12-28T09:08:09;101558.56;;;10.69;79.70
46942;BME280;32676;52.630;4.896;2023-12-28T09:10:36;101572.56;;;10.71;79.54
46942;BME280;32676;52.630;4.896;2023-12-28T09:13:04;101571.75;;;10.68;79.50
46942;BME280;32676;52.630;4.896;2023-12-28T09:15:30;101582.16;;;10.72;79.24
46942;BME280;32676;52.630;4.896;2023-12-28T09:17:58;101590.00;;;10.75;79.29
46942;BME280;32676;52.630;4.896;2023-12-28T09:20:25;101591.69;;;10.76;79.06
46942;BME280;32676;52.630;4.896;2023-12-28T09:22:51;101568.38;;;10.61;79.10
46942;BME280;32676;52.630;4.896;2023-12-28T09:25:21;101599.56;;;10.78;79.36
46942;BME280;32676;52.630;4.896;2023-12-28T09:27:47;101603.03;;;10.79;79.15
46942;BME280;32676;52.630;4.896;2023-12-28T09:30:14;101596.91;;;10.80;79.24
46942;BME280;32676;52.630;4.896;2023-12-28T09:32:41;101608.31;;;10.79;79.19
46942;BME280;32676;52.630;4.896;2023-12-28T09:35:08;101608.31;;;10.79;79.03
46942;BME280;32676;52.630;4.896;2023-12-28T09:37:35;101616.97;;;10.84;79.04
46942;BME280;32676;52.630;4.896;2023-12-28T09:40:01;101606.78;;;10.68;79.22
46942;BME280;32676;52.630;4.896;2023-12-28T09:42:33;101631.84;;;10.86;78.97
46942;BME280;32676;52.630;4.896;2023-12-28T09:45:04;101627.47;;;10.85;78.88
46942;BME280;32676;52.630;4.896;2023-12-28T09:47:32;101644.03;;;10.89;79.04
46942;BME280;32676;52.630;4.896;2023-12-28T09:49:59;101644.00;;;10.92;78.82
46942;BME280;32676;52.630;4.896;2023-12-28T09:52:26;101661.44;;;10.96;78.92
46942;BME280;32676;52.630;4.896;2023-12-28T09:54:53;101654.56;;;10.89;79.03
46942;BME280;32676;52.630;4.896;2023-12-28T09:57:20;101678.00;;;11.00;78.73
46942;BME280;32676;52.630;4.896;2023-12-28T09:59:46;101699.84;;;11.03;78.48
46942;BME280;32676;52.630;4.896;2023-12-28T10:02:14;101703.31;;;11.05;78.69
46942;BME280;32676;52.630;4.896;2023-12-28T10:04:41;101714.63;;;11.09;78.64
46942;BME280;32676;52.630;4.896;2023-12-28T10:07:08;101741.75;;;11.12;78.34
46942;BME280;32676;52.630;4.896;2023-12-28T10:09:36;101743.56;;;11.10;78.18
46942;BME280;32676;52.630;4.896;2023-12-28T10:12:04;101745.28;;;11.11;78.35
46942;BME280;32676;52.630;4.896;2023-12-28T10:14:31;101752.22;;;11.16;78.28
46942;BME280;32676;52.630;4.896;2023-12-28T10:16:58;101750.47;;;11.14;78.30
46942;BME280;32676;52.630;4.896;2023-12-28T10:19:24;101750.44;;;11.16;77.96
46942;BME280;32676;52.630;4.896;2023-12-28T10:21:51;101745.22;;;11.14;78.30
46942;BME280;32676;52.630;4.896;2023-12-28T10:24:17;101730.34;;;11.13;78.15
46942;BME280;32676;52.630;4.896;2023-12-28T10:26:45;101708.56;;;11.05;78.20
46942;BME280;32676;52.630;4.896;2023-12-28T10:29:12;101717.25;;;11.10;78.29
46942;BME280;32676;52.630;4.896;2023-12-28T10:31:41;101726.88;;;11.11;78.23
46942;BME280;32676;52.630;4.896;2023-12-28T10:34:08;101712.88;;;11.09;78.46
46942;BME280;32676;52.630;4.896;2023-12-28T10:36:35;101712.84;;;11.11;78.48
46942;BME280;32676;52.630;4.896;2023-12-28T10:39:04;101698.19;;;10.99;78.38
46942;BME280;32676;52.630;4.896;2023-12-28T10:41:32;101711.97;;;11.10;78.46
46942;BME280;32676;52.630;4.896;2023-12-28T10:44:03;101719.00;;;11.11;78.30
46942;BME280;32676;52.630;4.896;2023-12-28T10:46:31;101693.03;;;10.93;78.14
46942;BME280;32676;52.630;4.896;2023-12-28T10:48:59;101722.63;;;11.04;78.25
46942;BME280;32676;52.630;4.896;2023-12-28T10:51:27;101736.44;;;11.16;78.03
46942;BME280;32676;52.630;4.896;2023-12-28T10:54:03;101727.72;;;11.13;77.72
46942;BME280;32676;52.630;4.896;2023-12-28T10:56:36;101729.50;;;11.11;77.76
46942;BME280;32676;52.630;4.896;2023-12-28T10:59:20;101746.88;;;11.19;77.51
46942;BME280;32676;52.630;4.896;2023-12-28T11:01:51;101759.16;;;11.20;77.50
46942;BME280;32676;52.630;4.896;2023-12-28T11:04:24;101760.91;;;11.21;77.42
46942;BME280;32676;52.630;4.896;2023-12-28T11:06:56;101768.69;;;11.25;77.48
46942;BME280;32676;52.630;4.896;2023-12-28T11:09:24;101781.81;;;11.27;77.21
46942;BME280;32676;52.630;4.896;2023-12-28T11:11:53;101773.06;;;11.26;77.22
46942;BME280;32676;52.630;4.896;2023-12-28T11:14:26;101776.53;;;11.27;76.78
46942;BME280;32676;52.630;4.896;2023-12-28T11:16:53;101787.00;;;11.30;77.17
46942;BME280;32676;52.630;4.896;2023-12-28T11:19:21;101794.00;;;11.31;76.86
46942;BME280;32676;52.630;4.896;2023-12-28T11:21:49;101778.44;;;11.19;76.67
46942;BME280;32676;52.630;4.896;2023-12-28T11:24:17;101702.94;;;10.80;76.91
46942;BME280;32676;52.630;4.896;2023-12-28T11:26:44;101786.09;;;11.31;76.46
46942;BME280;32676;52.630;4.896;2023-12-28T11:29:19;101780.19;;;11.20;76.53
46942;BME280;32676;52.630;4.896;2023-12-28T11:31:52;101793.13;;;11.32;76.62
46942;BME280;32676;52.630;4.896;2023-12-28T11:34:18;101776.69;;;11.21;76.73
46942;BME280;32676;52.630;4.896;2023-12-28T11:36:49;101800.97;;;11.35;76.46
46942;BME280;32676;52.630;4.896;2023-12-28T11:39:29;101793.28;;;11.23;76.60
46942;BME280;32676;52.630;4.896;2023-12-28T11:42:00;101791.47;;;11.26;76.69
46942;BME280;32676;52.630;4.896;2023-12-28T11:44:28;101802.81;;;11.30;76.35
46942;BME280;32676;52.630;4.896;2023-12-28T11:46:56;101817.56;;;11.37;76.24
46942;BME280;32676;52.630;4.896;2023-12-28T11:49:25;101818.44;;;11.38;76.28
46942;BME280;32676;52.630;4.896;2023-12-28T11:51:55;101804.53;;;11.31;76.39
46942;BME280;32676;52.630;4.896;2023-12-28T11:54:24;101813.19;;;11.36;76.14
46942;BME280;32676;52.630;4.896;2023-12-28T11:56:50;101820.13;;;11.40;75.83
46942;BME280;32676;52.630;4.896;2023-12-28T11:59:17;101763.09;;;10.97;75.78
46942;BME280;32676;52.630;4.896;2023-12-28T12:01:49;101828.84;;;11.42;75.95
46942;BME280;32676;52.630;4.896;2023-12-28T12:04:17;101825.34;;;11.43;76.04
46942;BME280;32676;52.630;4.896;2023-12-28T12:06:44;101779.41;;;11.14;75.93
46942;BME280;32676;52.630;4.896;2023-12-28T12:09:11;101788.88;;;11.25;76.00
46942;BME280;32676;52.630;4.896;2023-12-28T12:11:38;101788.72;;;11.31;75.67
46942;BME280;32676;52.630;4.896;2023-12-28T12:14:08;101644.81;;;10.49;75.93
46942;BME280;32676;52.630;4.896;2023-12-28T12:16:35;101779.13;;;11.30;75.83
46942;BME280;32676;52.630;4.896;2023-12-28T12:19:01;101764.22;;;11.29;76.27
46942;BME280;32676;52.630;4.896;2023-12-28T12:21:34;101767.75;;;11.28;76.19
46942;BME280;32676;52.630;4.896;2023-12-28T12:24:01;101753.75;;;11.26;76.05
46942;BME280;32676;52.630;4.896;2023-12-28T12:26:30;101720.72;;;11.11;75.94
46942;BME280;32676;52.630;4.896;2023-12-28T12:28:56;101742.38;;;11.25;76.19
46942;BME280;32676;52.630;4.896;2023-12-28T12:31:24;101734.63;;;11.18;76.27
46942;BME280;32676;52.630;4.896;2023-12-28T12:33:53;101737.13;;;11.24;76.29
46942;BME280;32676;52.630;4.896;2023-12-28T12:36:20;101730.16;;;11.23;76.59
46942;BME280;32676;52.630;4.896;2023-12-28T12:38:48;101734.50;;;11.24;76.32
46942;BME280;32676;52.630;4.896;2023-12-28T12:41:15;101722.44;;;11.13;76.46
46942;BME280;32676;52.630;4.896;2023-12-28T12:43:42;101693.16;;;10.87;76.17
46942;BME280;32676;52.630;4.896;2023-12-28T12:46:09;101742.34;;;11.27;76.18
46942;BME280;32676;52.630;4.896;2023-12-28T12:48:36;101741.50;;;11.25;75.92
46942;BME280;32676;52.630;4.896;2023-12-28T12:51:03;101734.59;;;11.21;76.11
46942;BME280;32676;52.630;4.896;2023-12-28T12:53:33;101762.41;;;11.31;76.17
46942;BME280;32676;52.630;4.896;2023-12-28T12:56:02;101757.16;;;11.31;75.89